createdAt,value
2017-11-29T00:02:16.476Z,76.10
2017-11-29T00:04:50.041Z,76.60
2017-11-29T00:07:24.022Z,76.20
2017-11-29T00:09:58.619Z,76.70
2017-11-29T00:12:32.243Z,76.20
2017-11-29T00:15:06.120Z,76.30
2017-11-29T00:17:40.675Z,76.10
2017-11-29T00:20:15.818Z,76.20
2017-11-29T00:22:49.512Z,76.20
2017-11-29T00:25:23.169Z,76.30
2017-11-29T00:30:34.084Z,77.10
2017-11-29T00:33:09.534Z,76.60
2017-11-29T00:35:43.551Z,76.60
2017-11-29T00:38:17.312Z,76.60
2017-11-29T00:40:51.776Z,76.50
2017-11-29T00:43:25.987Z,76.40
2017-11-29T00:46:01.049Z,77.10
2017-11-29T00:48:35.570Z,76.40
2017-11-29T00:51:10.384Z,76.50
2017-11-29T00:53:45.106Z,76.70
2017-11-29T00:56:20.045Z,77.20
2017-11-29T00:58:54.587Z,77.70
2017-11-29T01:01:28.988Z,76.90
2017-11-29T01:04:04.231Z,77.10
2017-11-29T01:06:38.548Z,77.00
2017-11-29T01:09:13.775Z,77.10
2017-11-29T01:11:48.621Z,77.20
2017-11-29T01:14:22.558Z,77.40
2017-11-29T01:16:57.209Z,77.90
2017-11-29T01:19:31.318Z,77.30
2017-11-29T01:22:06.275Z,77.90
2017-11-29T01:24:40.123Z,77.60
2017-11-29T01:27:14.021Z,77.70
2017-11-29T01:29:47.602Z,77.80
2017-11-29T01:32:22.244Z,78.30
2017-11-29T01:34:56.300Z,77.70
2017-11-29T01:37:29.966Z,77.70
2017-11-29T01:40:03.578Z,77.60
2017-11-29T01:42:37.791Z,77.70
2017-11-29T01:45:13.100Z,77.70
2017-11-29T01:47:46.984Z,77.70
2017-11-29T01:50:20.828Z,77.80
2017-11-29T01:52:55.064Z,77.80
2017-11-29T01:55:30.293Z,78.30
2017-11-29T01:58:04.399Z,77.70
2017-11-29T02:00:48.381Z,77.70
2017-11-29T02:03:22.166Z,77.70
2017-11-29T02:05:56.770Z,77.80
2017-11-29T02:08:31.793Z,77.90
2017-11-29T02:11:06.317Z,78.40
2017-11-29T02:13:40.231Z,77.90
2017-11-29T02:16:14.575Z,78.00
2017-11-29T02:18:50.411Z,78.50
2017-11-29T02:21:25.159Z,78.10
2017-11-29T02:23:59.506Z,78.00
2017-11-29T02:26:33.351Z,78.10
2017-11-29T02:29:08.180Z,78.70
2017-11-29T02:31:42.280Z,78.10
2017-11-29T02:34:17.397Z,78.70
2017-11-29T02:36:52.277Z,78.20
2017-11-29T02:39:27.215Z,78.10
2017-11-29T02:42:13.163Z,78.20
2017-11-29T02:44:47.826Z,78.20
2017-11-29T02:47:23.104Z,78.20
2017-11-29T02:49:57.843Z,78.10
2017-11-29T02:52:32.927Z,78.60
2017-11-29T02:55:06.944Z,78.00
2017-11-29T02:57:40.828Z,77.80
2017-11-29T03:00:14.526Z,77.80
2017-11-29T03:02:49.067Z,77.80
2017-11-29T03:05:22.791Z,78.00
2017-11-29T03:07:56.956Z,78.00
2017-11-29T03:10:32.390Z,78.00
2017-11-29T03:13:07.056Z,78.00
2017-11-29T03:15:41.614Z,78.10
2017-11-29T03:18:16.108Z,78.10
2017-11-29T03:20:50.110Z,78.20
2017-11-29T03:23:25.764Z,78.20
2017-11-29T03:26:00.692Z,78.20
2017-11-29T03:28:35.839Z,78.30
2017-11-29T03:31:10.540Z,78.40
2017-11-29T03:33:45.272Z,78.40
2017-11-29T03:36:20.242Z,78.50
2017-11-29T03:38:54.022Z,78.50
2017-11-29T03:41:28.747Z,78.50
2017-11-29T03:44:03.575Z,78.60
2017-11-29T03:46:37.798Z,78.60
2017-11-29T03:49:11.880Z,78.80
2017-11-29T03:51:46.899Z,78.70
2017-11-29T03:54:22.158Z,78.60
2017-11-29T03:56:56.791Z,78.70
2017-11-29T03:59:31.446Z,78.60
2017-11-29T04:02:06.123Z,78.60
2017-11-29T04:04:41.200Z,78.60
2017-11-29T04:07:16.220Z,79.20
2017-11-29T04:09:50.753Z,78.80
2017-11-29T04:12:25.651Z,79.40
2017-11-29T04:14:59.785Z,79.00
2017-11-29T04:17:35.051Z,79.40
2017-11-29T04:20:09.638Z,78.80
2017-11-29T04:22:44.766Z,78.40
2017-11-29T04:25:19.011Z,78.10
2017-11-29T04:27:53.348Z,78.00
2017-11-29T04:30:28.130Z,77.60
2017-11-29T04:33:03.733Z,77.60
2017-11-29T04:35:37.490Z,77.30
2017-11-29T04:38:11.710Z,77.10
2017-11-29T04:40:46.252Z,76.90
2017-11-29T04:43:21.263Z,76.70
2017-11-29T04:45:57.237Z,77.10
2017-11-29T04:48:32.235Z,76.50
2017-11-29T04:51:06.790Z,76.40
2017-11-29T04:53:40.946Z,76.30
2017-11-29T04:56:15.539Z,76.20
2017-11-29T04:58:50.339Z,77.10
2017-11-29T05:01:25.135Z,76.20
2017-11-29T05:03:59.996Z,76.00
2017-11-29T05:06:34.944Z,76.10
2017-11-29T05:09:09.364Z,76.10
2017-11-29T05:11:43.826Z,76.10
2017-11-29T05:14:18.507Z,75.80
2017-11-29T05:16:53.698Z,75.80
2017-11-29T05:19:27.731Z,75.90
2017-11-29T05:22:03.063Z,76.50
2017-11-29T05:24:37.539Z,76.00
2017-11-29T05:27:12.345Z,75.80
2017-11-29T05:29:47.126Z,75.70
2017-11-29T05:32:22.013Z,75.70
2017-11-29T05:34:56.451Z,75.80
2017-11-29T05:37:31.543Z,75.60
2017-11-29T05:40:05.997Z,75.80
2017-11-29T05:42:40.399Z,75.80
2017-11-29T05:45:14.827Z,76.30
2017-11-29T05:47:48.728Z,75.60
2017-11-29T05:50:24.187Z,76.00
2017-11-29T05:52:58.275Z,75.70
2017-11-29T05:55:32.200Z,75.40
2017-11-29T05:58:05.923Z,75.10
2017-11-29T06:00:40.043Z,75.20
2017-11-29T06:03:14.314Z,75.10
2017-11-29T06:05:48.139Z,75.30
2017-11-29T06:08:22.679Z,76.10
2017-11-29T06:10:57.474Z,76.30
2017-11-29T06:13:31.918Z,76.20
2017-11-29T06:16:06.860Z,76.50
2017-11-29T06:18:40.977Z,76.70
2017-11-29T06:21:15.204Z,77.10
2017-11-29T06:23:49.699Z,77.20
2017-11-29T06:26:24.509Z,77.40
2017-11-29T06:28:58.970Z,77.20
2017-11-29T06:31:34.092Z,77.50
2017-11-29T06:34:08.040Z,77.60
2017-11-29T06:36:42.612Z,77.80
2017-11-29T06:39:16.478Z,78.00
2017-11-29T06:41:51.045Z,78.10
2017-11-29T06:44:25.680Z,78.20
2017-11-29T06:47:00.148Z,78.00
2017-11-29T06:49:34.619Z,77.90
2017-11-29T06:52:09.743Z,78.00
2017-11-29T06:54:44.066Z,78.00
2017-11-29T06:59:54.641Z,78.10
2017-11-29T07:02:29.578Z,78.00
2017-11-29T07:05:04.102Z,78.70
2017-11-29T07:07:38.251Z,78.20
2017-11-29T07:10:12.018Z,78.00
2017-11-29T07:12:46.726Z,77.80
2017-11-29T07:15:20.677Z,77.80
2017-11-29T07:17:54.879Z,77.70
2017-11-29T07:20:29.595Z,77.80
2017-11-29T07:23:04.581Z,78.50
2017-11-29T07:25:39.078Z,77.90
2017-11-29T07:28:13.439Z,77.90
2017-11-29T07:30:48.027Z,77.70
2017-11-29T07:33:23.818Z,77.60
2017-11-29T07:35:58.062Z,77.50
2017-11-29T07:38:32.455Z,77.40
2017-11-29T07:41:06.900Z,76.50
2017-11-29T07:43:42.044Z,75.70
2017-11-29T07:46:16.148Z,75.30
2017-11-29T07:48:51.172Z,74.20
2017-11-29T07:51:26.156Z,72.60
2017-11-29T07:54:01.153Z,70.60
2017-11-29T07:56:37.121Z,68.00
2017-11-29T07:59:11.642Z,65.80
2017-11-29T08:01:47.624Z,63.70
2017-11-29T08:04:22.698Z,61.60
2017-11-29T08:06:57.623Z,59.10
2017-11-29T08:09:32.154Z,58.80
2017-11-29T08:12:06.383Z,58.30
2017-11-29T08:14:40.915Z,59.10
2017-11-29T08:17:15.451Z,59.50
2017-11-29T08:19:50.214Z,61.30
2017-11-29T08:22:25.475Z,61.90
2017-11-29T08:25:00.268Z,61.10
2017-11-29T08:27:35.077Z,61.60
2017-11-29T08:30:10.263Z,62.90
2017-11-29T08:32:57.005Z,63.90
2017-11-29T08:35:32.449Z,62.90
2017-11-29T08:38:06.475Z,62.00
2017-11-29T08:40:41.076Z,61.40
2017-11-29T08:43:16.523Z,61.60
2017-11-29T08:45:50.462Z,59.30
2017-11-29T08:48:24.342Z,58.60
2017-11-29T08:50:58.555Z,58.40
2017-11-29T08:53:32.889Z,59.20
2017-11-29T08:56:07.121Z,59.50
2017-11-29T08:58:41.831Z,59.60
2017-11-29T09:01:17.064Z,60.00
2017-11-29T09:03:52.403Z,58.80
2017-11-29T09:06:26.291Z,57.60
2017-11-29T09:09:00.931Z,58.40
2017-11-29T09:11:35.661Z,55.90
2017-11-29T09:14:10.393Z,55.30
2017-11-29T09:16:44.374Z,54.00
2017-11-29T09:19:18.263Z,54.50
2017-11-29T09:21:52.200Z,53.70
2017-11-29T09:24:25.944Z,51.70
2017-11-29T09:27:02.278Z,51.30
2017-11-29T09:29:36.258Z,51.30
2017-11-29T09:32:10.687Z,51.60
2017-11-29T09:34:44.685Z,50.70
2017-11-29T09:37:19.242Z,50.90
2017-11-29T09:39:53.095Z,50.80
2017-11-29T09:42:26.950Z,51.00
2017-11-29T09:45:00.790Z,50.10
2017-11-29T09:47:34.526Z,49.10
2017-11-29T09:50:08.312Z,49.60
2017-11-29T09:52:41.980Z,48.70
2017-11-29T09:55:16.000Z,47.90
2017-11-29T09:57:49.795Z,48.00
2017-11-29T10:00:23.615Z,49.40
2017-11-29T10:02:57.386Z,50.40
2017-11-29T10:05:31.060Z,50.70
2017-11-29T10:08:04.920Z,50.70
2017-11-29T10:10:38.664Z,49.80
2017-11-29T10:13:12.464Z,49.10
2017-11-29T10:15:47.140Z,48.80
2017-11-29T10:18:21.068Z,48.80
2017-11-29T10:20:55.520Z,49.60
2017-11-29T10:23:29.692Z,49.10
2017-11-29T10:26:03.444Z,49.80
2017-11-29T10:28:37.365Z,51.00
2017-11-29T10:31:11.935Z,52.00
2017-11-29T10:33:46.584Z,50.70
2017-11-29T10:36:21.488Z,49.30
2017-11-29T10:38:55.478Z,49.20
2017-11-29T10:41:29.525Z,47.90
2017-11-29T10:44:04.094Z,46.70
2017-11-29T10:46:38.145Z,46.10
2017-11-29T10:49:12.759Z,43.30
2017-11-29T10:51:46.775Z,43.00
2017-11-29T10:54:20.529Z,42.60
2017-11-29T10:56:54.493Z,42.20
2017-11-29T10:59:28.065Z,40.90
2017-11-29T11:02:02.734Z,39.20
2017-11-29T11:04:36.835Z,39.10
2017-11-29T11:07:11.345Z,39.30
2017-11-29T11:09:45.910Z,39.10
2017-11-29T11:12:21.243Z,39.30
2017-11-29T11:14:54.985Z,37.90
2017-11-29T11:17:28.905Z,37.30
2017-11-29T11:20:02.799Z,37.60
2017-11-29T11:22:36.737Z,36.50
2017-11-29T11:25:10.706Z,35.80
2017-11-29T11:27:44.684Z,36.60
2017-11-29T11:30:20.180Z,40.80
2017-11-29T11:32:54.529Z,40.70
2017-11-29T11:35:28.444Z,42.60
2017-11-29T11:38:03.016Z,45.60
2017-11-29T11:40:38.199Z,46.90
2017-11-29T11:43:12.908Z,48.00
2017-11-29T11:45:47.626Z,49.10
2017-11-29T11:48:22.280Z,50.00
2017-11-29T11:50:56.147Z,50.00
2017-11-29T11:53:29.886Z,50.20
2017-11-29T11:56:03.618Z,50.00
2017-11-29T11:58:37.352Z,50.60
2017-11-29T12:01:11.931Z,49.90
2017-11-29T12:03:45.800Z,49.00
2017-11-29T12:06:19.488Z,48.60
2017-11-29T12:08:54.166Z,48.50
2017-11-29T12:11:29.011Z,48.40
2017-11-29T12:14:03.261Z,48.30
2017-11-29T12:16:37.100Z,47.30
2017-11-29T12:19:11.939Z,45.20
2017-11-29T12:21:46.288Z,45.10
2017-11-29T12:24:19.939Z,45.00
2017-11-29T12:26:54.482Z,44.90
2017-11-29T12:29:28.445Z,44.70
2017-11-29T12:32:02.215Z,45.10
2017-11-29T12:34:36.848Z,45.60
2017-11-29T12:37:10.931Z,45.60
2017-11-29T12:39:44.632Z,46.00
2017-11-29T12:42:19.631Z,46.20
2017-11-29T12:44:53.772Z,46.10
2017-11-29T12:47:28.368Z,46.40
2017-11-29T12:50:14.443Z,46.40
2017-11-29T12:52:48.054Z,46.40
2017-11-29T12:55:22.836Z,45.80
2017-11-29T12:57:56.861Z,45.80
2017-11-29T13:00:31.647Z,46.00
2017-11-29T13:03:05.575Z,45.30
2017-11-29T13:05:39.396Z,44.60
2017-11-29T13:08:13.289Z,44.80
2017-11-29T13:10:46.992Z,45.40
2017-11-29T13:13:21.542Z,46.00
2017-11-29T13:15:56.050Z,46.90
2017-11-29T13:18:30.821Z,46.80
2017-11-29T13:21:05.491Z,47.00
2017-11-29T13:23:39.554Z,46.90
2017-11-29T13:26:14.298Z,47.30
2017-11-29T13:28:49.208Z,47.90
2017-11-29T13:31:23.992Z,48.80
2017-11-29T13:33:58.721Z,49.70
2017-11-29T13:36:33.106Z,49.60
2017-11-29T13:39:07.721Z,50.00
2017-11-29T13:41:42.630Z,50.50
2017-11-29T13:44:17.361Z,50.60
2017-11-29T13:46:51.726Z,50.80
2017-11-29T13:49:25.836Z,51.00
2017-11-29T13:52:00.331Z,51.30
2017-11-29T13:54:34.623Z,51.30
2017-11-29T13:57:09.737Z,51.20
2017-11-29T13:59:44.253Z,51.00
2017-11-29T14:02:18.634Z,51.30
2017-11-29T14:04:53.089Z,51.70
2017-11-29T14:07:27.711Z,52.90
2017-11-29T14:10:04.106Z,52.80
2017-11-29T14:12:39.197Z,53.50
2017-11-29T14:15:12.972Z,53.30
2017-11-29T14:17:47.954Z,53.80
2017-11-29T14:20:22.871Z,55.20
2017-11-29T14:22:58.079Z,55.70
2017-11-29T14:25:32.272Z,55.30
2017-11-29T14:28:07.466Z,55.30
2017-11-29T14:30:41.911Z,55.80
2017-11-29T14:33:16.163Z,56.00
2017-11-29T14:35:49.977Z,56.30
2017-11-29T14:38:24.083Z,56.60
2017-11-29T14:40:57.774Z,56.80
2017-11-29T14:43:32.152Z,57.10
2017-11-29T14:46:06.720Z,57.00
2017-11-29T14:48:41.615Z,57.10
2017-11-29T14:51:16.705Z,57.40
2017-11-29T14:53:51.607Z,57.50
2017-11-29T14:56:27.091Z,58.00
2017-11-29T14:59:02.550Z,58.20
2017-11-29T15:01:37.497Z,58.00
2017-11-29T15:04:11.878Z,58.00
2017-11-29T15:06:46.441Z,58.30
2017-11-29T15:09:21.382Z,58.20
2017-11-29T15:11:56.499Z,58.20
2017-11-29T15:14:30.459Z,58.40
2017-11-29T15:17:04.246Z,58.60
2017-11-29T15:19:39.504Z,59.00
2017-11-29T15:22:15.331Z,58.50
2017-11-29T15:24:49.559Z,58.80
2017-11-29T15:27:24.973Z,58.90
2017-11-29T15:29:59.074Z,59.00
2017-11-29T15:32:32.892Z,59.70
2017-11-29T15:35:06.595Z,59.60
2017-11-29T15:37:40.410Z,60.00
2017-11-29T15:40:14.398Z,60.40
2017-11-29T15:42:49.001Z,60.60
2017-11-29T15:45:22.719Z,60.80
2017-11-29T15:47:56.678Z,60.80
2017-11-29T15:50:31.631Z,61.40
2017-11-29T15:53:05.943Z,61.40
2017-11-29T15:55:39.795Z,61.80
2017-11-29T15:58:13.597Z,61.90
2017-11-29T16:00:47.414Z,62.10
2017-11-29T16:03:21.828Z,62.80
2017-11-29T16:05:55.788Z,62.70
2017-11-29T16:08:30.373Z,63.10
2017-11-29T16:11:04.600Z,63.10
2017-11-29T16:13:38.409Z,63.40
2017-11-29T16:16:12.181Z,63.80
2017-11-29T16:18:46.032Z,63.70
2017-11-29T16:21:20.616Z,64.10
2017-11-29T16:23:55.483Z,63.50
2017-11-29T16:26:29.908Z,63.50
2017-11-29T16:29:03.707Z,63.20
2017-11-29T16:31:37.622Z,63.70
2017-11-29T16:34:11.280Z,63.50
2017-11-29T16:36:45.705Z,63.10
2017-11-29T16:39:19.829Z,63.10
2017-11-29T16:41:53.454Z,63.60
2017-11-29T16:44:27.207Z,64.30
2017-11-29T16:47:01.732Z,63.60
2017-11-29T16:49:35.553Z,63.50
2017-11-29T16:52:10.264Z,64.00
2017-11-29T16:54:44.250Z,63.70
2017-11-29T16:57:18.173Z,63.90
2017-11-29T16:59:52.216Z,64.30
2017-11-29T17:02:26.727Z,64.80
2017-11-29T17:05:00.870Z,64.80
2017-11-29T17:07:35.251Z,65.20
2017-11-29T17:10:09.275Z,65.20
2017-11-29T17:12:43.377Z,65.80
2017-11-29T17:15:18.084Z,66.60
2017-11-29T17:17:52.058Z,66.50
2017-11-29T17:20:26.098Z,66.90
2017-11-29T17:23:00.071Z,67.10
2017-11-29T17:25:34.832Z,67.40
2017-11-29T17:28:09.186Z,67.60
2017-11-29T17:30:43.636Z,67.80
2017-11-29T17:33:18.279Z,68.20
2017-11-29T17:35:52.567Z,68.10
2017-11-29T17:38:27.826Z,68.20
2017-11-29T17:41:02.363Z,68.40
2017-11-29T17:43:37.903Z,69.20
2017-11-29T17:46:12.585Z,68.70
2017-11-29T17:48:47.713Z,68.50
2017-11-29T17:51:21.959Z,68.50
2017-11-29T17:53:56.522Z,68.60
2017-11-29T17:56:32.016Z,68.50
2017-11-29T17:59:08.060Z,68.70
2017-11-29T18:01:42.082Z,68.80
2017-11-29T18:04:15.894Z,68.70
2017-11-29T18:06:50.599Z,68.60
2017-11-29T18:09:24.768Z,68.30
2017-11-29T18:12:01.033Z,68.30
2017-11-29T18:14:35.309Z,68.30
2017-11-29T18:17:11.354Z,68.80
2017-11-29T18:19:46.035Z,68.30
2017-11-29T18:22:20.878Z,68.20
2017-11-29T18:24:56.459Z,68.20
2017-11-29T18:27:30.723Z,68.30
2017-11-29T18:30:05.398Z,68.30
2017-11-29T18:32:40.556Z,68.70
2017-11-29T18:35:15.596Z,69.00
2017-11-29T18:37:50.321Z,70.20
2017-11-29T18:40:25.245Z,69.10
2017-11-29T18:42:59.672Z,69.30
2017-11-29T18:45:34.994Z,70.30
2017-11-29T18:48:09.698Z,69.50
2017-11-29T18:50:43.639Z,69.70
2017-11-29T18:53:18.634Z,69.50
2017-11-29T18:55:52.458Z,69.60
2017-11-29T18:58:26.501Z,69.60
2017-11-29T19:01:01.403Z,69.60
2017-11-29T19:03:36.543Z,69.80
2017-11-29T19:06:11.361Z,70.40
2017-11-29T19:08:45.955Z,70.20
2017-11-29T19:11:21.227Z,71.00
2017-11-29T19:13:56.204Z,70.80
2017-11-29T19:16:30.747Z,71.00
2017-11-29T19:19:05.407Z,71.20
2017-11-29T19:21:40.252Z,71.50
2017-11-29T19:24:15.538Z,71.50
2017-11-29T19:26:49.875Z,71.50
2017-11-29T19:29:24.838Z,71.60
2017-11-29T19:31:59.776Z,71.80
2017-11-29T19:34:35.102Z,71.90
2017-11-29T19:37:09.930Z,72.10
2017-11-29T19:39:44.416Z,72.10
2017-11-29T19:42:19.618Z,72.00
2017-11-29T19:47:34.805Z,72.10
2017-11-29T19:50:10.051Z,72.30
2017-11-29T19:52:44.319Z,72.30
2017-11-29T19:55:18.209Z,72.40
2017-11-29T19:57:52.823Z,72.50
2017-11-29T20:00:27.839Z,72.60
2017-11-29T20:03:03.172Z,72.80
2017-11-29T20:05:37.759Z,72.90
2017-11-29T20:08:12.165Z,73.00
2017-11-29T20:10:48.163Z,73.30
2017-11-29T20:13:22.826Z,72.70
2017-11-29T20:15:57.733Z,72.70
2017-11-29T20:18:32.836Z,72.60
2017-11-29T20:21:07.392Z,72.60
2017-11-29T20:23:42.110Z,72.50
2017-11-29T20:26:17.233Z,73.10
2017-11-29T20:28:51.715Z,72.30
2017-11-29T20:31:26.760Z,72.30
2017-11-29T20:34:00.992Z,71.70
2017-11-29T20:39:10.408Z,72.00
2017-11-29T20:41:46.457Z,72.20
2017-11-29T20:44:21.654Z,72.20
2017-11-29T20:46:56.398Z,72.30
2017-11-29T20:49:31.257Z,72.30
2017-11-29T20:52:17.422Z,72.20
2017-11-29T20:54:51.975Z,72.20
2017-11-29T20:57:26.044Z,72.30
2017-11-29T21:00:00.006Z,72.30
2017-11-29T21:02:34.886Z,72.70
2017-11-29T21:07:44.067Z,72.40
2017-11-29T21:10:19.394Z,73.20
2017-11-29T21:12:53.445Z,72.40
2017-11-29T21:15:28.637Z,72.20
2017-11-29T21:18:03.133Z,72.50
2017-11-29T21:20:38.183Z,72.60
2017-11-29T21:23:12.534Z,71.80
2017-11-29T21:25:47.335Z,72.00
2017-11-29T21:30:57.656Z,71.60
2017-11-29T21:33:31.578Z,71.40
2017-11-29T21:36:06.332Z,71.40
2017-11-29T21:38:40.875Z,71.80
2017-11-29T21:41:15.657Z,71.40
2017-11-29T21:43:50.543Z,71.30
2017-11-29T21:46:25.060Z,71.00
2017-11-29T21:49:00.179Z,70.60
2017-11-29T21:51:34.330Z,70.30
2017-11-29T21:54:09.523Z,70.70
2017-11-29T21:56:43.656Z,70.00
2017-11-29T21:59:17.702Z,70.10
2017-11-29T22:01:52.162Z,70.20
2017-11-29T22:04:26.239Z,70.40
2017-11-29T22:07:01.212Z,70.50
2017-11-29T22:09:34.826Z,70.80
2017-11-29T22:12:09.469Z,70.90
2017-11-29T22:14:43.872Z,70.50
2017-11-29T22:17:18.595Z,71.10
2017-11-29T22:19:53.022Z,71.10
2017-11-29T22:22:27.039Z,70.70
2017-11-29T22:25:00.940Z,71.60
2017-11-29T22:27:35.528Z,72.30
2017-11-29T22:30:10.088Z,72.30
2017-11-29T22:32:44.717Z,72.60
2017-11-29T22:35:19.570Z,72.80
2017-11-29T22:37:53.762Z,72.90
2017-11-29T22:40:27.600Z,73.30
2017-11-29T22:43:01.356Z,73.40
2017-11-29T22:45:36.101Z,74.10
2017-11-29T22:48:10.726Z,73.90
2017-11-29T22:50:45.191Z,74.00
2017-11-29T22:53:19.773Z,73.90
2017-11-29T22:55:54.005Z,74.00
2017-11-29T22:58:29.296Z,74.40
2017-11-29T23:01:03.526Z,73.80
2017-11-29T23:03:37.971Z,73.30
2017-11-29T23:06:12.773Z,73.50
2017-11-29T23:08:47.612Z,73.40
2017-11-29T23:11:21.741Z,73.30
2017-11-29T23:13:57.024Z,72.90
2017-11-29T23:16:31.999Z,72.90
2017-11-29T23:19:06.379Z,73.00
2017-11-29T23:21:41.263Z,73.10
2017-11-29T23:24:15.901Z,73.10
2017-11-29T23:26:50.399Z,73.10
2017-11-29T23:29:24.280Z,72.80
2017-11-29T23:31:58.115Z,72.70
2017-11-29T23:34:32.324Z,72.60
2017-11-29T23:37:06.750Z,73.10
2017-11-29T23:39:41.471Z,72.80
2017-11-29T23:42:16.750Z,73.50
2017-11-29T23:44:50.951Z,72.80
2017-11-29T23:47:25.288Z,73.10
2017-11-29T23:49:59.135Z,73.20
2017-11-29T23:52:32.974Z,73.30
2017-11-29T23:55:06.647Z,73.50
2017-11-29T23:57:41.211Z,73.80
